createdAt,value
2023-03-28T00:03:14.539Z,97905.34
2023-03-28T00:08:36.988Z,97910.81
2023-03-28T00:14:00.946Z,97922.69
2023-03-28T00:19:22.708Z,97918.72
2023-03-28T00:24:44.251Z,97923.44
2023-03-28T00:30:06.029Z,97925.16
2023-03-28T00:35:27.380Z,97921.50
2023-03-28T00:40:49.383Z,97917.53
2023-03-28T00:46:18.684Z,97920.19
2023-03-28T00:51:59.665Z,97918.69
2023-03-28T00:57:21.011Z,97916.94
2023-03-28T01:02:42.758Z,97916.41
2023-03-28T01:08:17.703Z,97904.22
2023-03-28T01:13:42.222Z,97908.25
2023-03-28T01:19:05.034Z,97903.50
2023-03-28T01:25:09.304Z,97910.28
2023-03-28T01:30:31.699Z,97918.09
2023-03-28T01:36:33.855Z,97911.50
2023-03-28T01:42:00.511Z,97904.91
2023-03-28T01:47:26.993Z,97904.41
2023-03-28T01:53:16.408Z,97910.34
2023-03-28T01:58:55.720Z,97910.69
2023-03-28T02:04:29.225Z,97890.13
2023-03-28T02:09:52.470Z,97891.03
2023-03-28T02:15:32.161Z,97893.81
2023-03-28T02:21:16.856Z,97895.16
2023-03-28T02:27:08.919Z,97889.91
2023-03-28T02:32:36.263Z,97890.72
2023-03-28T02:38:16.751Z,97901.06
2023-03-28T02:43:47.597Z,97910.34
2023-03-28T02:49:22.491Z,97933.06
2023-03-28T02:54:53.110Z,97931.41
2023-03-28T03:00:24.103Z,97926.69
2023-03-28T03:05:44.745Z,97925.69
2023-03-28T03:11:06.245Z,97926.09
2023-03-28T03:16:29.472Z,97930.38
2023-03-28T03:21:51.896Z,97921.38
2023-03-28T03:27:15.838Z,97921.19
2023-03-28T03:32:39.349Z,97919.44
2023-03-28T03:38:00.987Z,97923.91
2023-03-28T03:43:22.220Z,97932.94
2023-03-28T03:48:49.552Z,97941.00
2023-03-28T03:54:12.228Z,97943.44
2023-03-28T03:59:34.573Z,97943.03
2023-03-28T04:04:57.204Z,97947.06
2023-03-28T04:10:21.847Z,97951.09
2023-03-28T04:16:40.375Z,97960.66
2023-03-28T04:22:04.367Z,97949.81
2023-03-28T04:27:29.717Z,97952.56
2023-03-28T04:32:54.420Z,97976.91
2023-03-28T04:38:21.895Z,97974.78
2023-03-28T04:43:50.417Z,97989.13
2023-03-28T04:49:11.811Z,97995.94
2023-03-28T04:54:33.790Z,98005.22
2023-03-28T04:59:59.384Z,98006.63
2023-03-28T05:05:39.665Z,98004.63
2023-03-28T05:11:04.504Z,98003.97
2023-03-28T05:16:25.939Z,98005.44
2023-03-28T05:22:06.033Z,98059.59
2023-03-28T05:27:28.549Z,98041.16
2023-03-28T05:32:50.125Z,98043.50
2023-03-28T05:38:11.562Z,98069.28
2023-03-28T05:43:33.252Z,98077.66
2023-03-28T05:48:54.980Z,98086.72
2023-03-28T05:54:17.254Z,98105.34
2023-03-28T05:59:40.877Z,98105.78
2023-03-28T06:05:03.402Z,98110.50
2023-03-28T06:10:25.890Z,98116.97
2023-03-28T06:16:04.004Z,98136.09
2023-03-28T06:21:27.959Z,98129.63
2023-03-28T06:26:50.063Z,98142.84
2023-03-28T06:32:15.593Z,98145.22
2023-03-28T06:37:36.992Z,98154.97
2023-03-28T06:43:01.336Z,98177.94
2023-03-28T06:48:37.423Z,98185.22
2023-03-28T06:54:17.437Z,98190.00
2023-03-28T06:59:38.679Z,98205.88
2023-03-28T07:05:05.854Z,98207.22
2023-03-28T07:10:26.907Z,98230.00
2023-03-28T07:15:48.260Z,98231.72
2023-03-28T07:21:10.900Z,98241.34
2023-03-28T07:26:32.632Z,98248.38
2023-03-28T07:31:53.696Z,98256.47
2023-03-28T07:37:15.391Z,98254.94
2023-03-28T07:42:45.152Z,98269.44
2023-03-28T07:48:06.716Z,98282.22
2023-03-28T07:53:28.268Z,98287.00
2023-03-28T07:58:50.070Z,98302.38
2023-03-28T08:04:11.645Z,98301.50
2023-03-28T08:09:51.083Z,98305.59
2023-03-28T08:15:29.475Z,98310.72
2023-03-28T08:20:57.472Z,98310.97
2023-03-28T08:26:19.924Z,98313.06
2023-03-28T08:31:46.312Z,98318.50
2023-03-28T08:37:08.683Z,98312.16
2023-03-28T08:42:57.454Z,98322.44
2023-03-28T08:48:32.149Z,98325.47
2023-03-28T08:54:08.334Z,98324.88
2023-03-28T08:59:43.506Z,98337.28
2023-03-28T09:05:21.863Z,98344.72
2023-03-28T09:11:05.364Z,98349.81
2023-03-28T09:16:43.960Z,98355.38
2023-03-28T09:22:21.921Z,98363.69
2023-03-28T09:28:09.338Z,98363.22
2023-03-28T09:33:35.858Z,98355.19
2023-03-28T09:39:04.577Z,98365.44
2023-03-28T09:44:30.259Z,98367.47
2023-03-28T09:50:29.224Z,98371.00
2023-03-28T09:56:03.350Z,98372.59
2023-03-28T10:01:45.618Z,98380.03
2023-03-28T10:07:09.217Z,98380.03
2023-03-28T10:12:33.434Z,98384.50
2023-03-28T10:17:54.834Z,98373.88
2023-03-28T10:23:23.936Z,98389.16
2023-03-28T10:28:48.669Z,98390.00
2023-03-28T10:34:29.995Z,98372.75
2023-03-28T10:40:24.247Z,98383.41
2023-03-28T10:46:07.886Z,98402.41
2023-03-28T10:51:43.194Z,98402.47
2023-03-28T10:57:13.904Z,98392.88
2023-03-28T11:02:38.316Z,98419.97
2023-03-28T11:08:45.259Z,98403.06
2023-03-28T11:14:19.178Z,98402.41
2023-03-28T11:20:01.650Z,98391.81
2023-03-28T11:25:37.825Z,98377.38
2023-03-28T11:31:56.152Z,98399.75
2023-03-28T11:37:19.764Z,98387.06
2023-03-28T11:42:47.255Z,98412.50
2023-03-28T11:48:11.719Z,98396.97
2023-03-28T11:53:59.532Z,98402.28
2023-03-28T11:59:33.388Z,98393.44
2023-03-28T12:05:12.830Z,98407.03
2023-03-28T12:10:38.057Z,98404.19
2023-03-28T12:16:08.902Z,98415.44
2023-03-28T12:22:55.043Z,98411.53
2023-03-28T12:29:31.010Z,98383.91
2023-03-28T12:47:42.237Z,98407.25
2023-03-28T12:53:03.965Z,98406.59
2023-03-28T12:58:36.038Z,98409.09
2023-03-28T13:04:25.776Z,98412.97
2023-03-28T13:10:07.900Z,98423.16
2023-03-28T13:15:32.819Z,98412.75
2023-03-28T13:20:57.747Z,98412.69
2023-03-28T13:26:18.768Z,98412.88
2023-03-28T13:31:42.120Z,98404.16
2023-03-28T13:37:22.428Z,98403.28
2023-03-28T13:50:01.100Z,98420.56
2023-03-28T13:55:30.616Z,98407.03
2023-03-28T14:13:28.799Z,98422.16
2023-03-28T14:18:50.303Z,98408.41
2023-03-28T14:24:13.272Z,98407.25
2023-03-28T14:29:34.182Z,98396.31
2023-03-28T14:34:55.975Z,98413.81
2023-03-28T14:40:28.033Z,98403.34
2023-03-28T14:45:52.656Z,98398.19
2023-03-28T14:51:14.105Z,98400.16
2023-03-28T14:56:35.007Z,98404.13
2023-03-28T15:01:55.733Z,98404.16
2023-03-28T15:07:26.425Z,98405.13
2023-03-28T15:12:48.939Z,98408.91
2023-03-28T15:18:15.112Z,98411.97
2023-03-28T15:23:46.313Z,98416.13
2023-03-28T15:29:07.987Z,98428.78
2023-03-28T15:34:28.802Z,98424.94
2023-03-28T15:39:51.129Z,98432.97
2023-03-28T15:45:22.421Z,98440.97
2023-03-28T15:50:46.791Z,98444.13
2023-03-28T15:56:12.105Z,98437.31
2023-03-28T16:01:33.206Z,98442.19
2023-03-28T16:07:12.720Z,98448.44
2023-03-28T16:18:49.062Z,98448.78
2023-03-28T16:24:09.795Z,98464.75
2023-03-28T16:29:31.702Z,98465.13
2023-03-28T16:35:38.108Z,98473.81
2023-03-28T16:47:15.662Z,98475.25
2023-03-28T16:52:38.973Z,98472.09
2023-03-28T16:58:00.113Z,98475.38
2023-03-28T17:03:30.846Z,98475.34
2023-03-28T17:08:53.312Z,98483.19
2023-03-28T17:14:14.279Z,98481.03
2023-03-28T17:19:35.001Z,98488.47
2023-03-28T17:24:57.340Z,98489.22
2023-03-28T17:30:18.190Z,98492.19
2023-03-28T17:35:39.129Z,98490.34
2023-03-28T17:41:00.332Z,98493.72
2023-03-28T17:46:24.701Z,98495.78
2023-03-28T17:51:46.136Z,98491.72
2023-03-28T17:57:08.452Z,98493.41
2023-03-28T18:02:29.866Z,98486.56
2023-03-28T18:08:04.673Z,98488.94
2023-03-28T18:13:26.259Z,98504.50
2023-03-28T18:18:47.367Z,98500.44
2023-03-28T18:24:08.564Z,98497.78
2023-03-28T18:29:31.143Z,98500.03
2023-03-28T18:34:52.180Z,98501.09
2023-03-28T18:40:14.549Z,98491.06
2023-03-28T18:45:35.942Z,98486.81
2023-03-28T18:50:58.177Z,98488.81
2023-03-28T18:56:19.330Z,98476.94
2023-03-28T19:01:44.432Z,98487.63
2023-03-28T19:07:06.623Z,98485.78
2023-03-28T19:12:27.444Z,98487.97
2023-03-28T19:17:48.082Z,98475.56
2023-03-28T19:23:08.843Z,98482.34
2023-03-28T19:28:29.598Z,98483.97
2023-03-28T19:33:50.663Z,98482.28
2023-03-28T19:39:11.277Z,98482.19
2023-03-28T19:44:33.226Z,98473.44
2023-03-28T19:49:54.220Z,98482.78
2023-03-28T19:55:15.117Z,98500.44
2023-03-28T20:00:36.160Z,98493.44
2023-03-28T20:05:57.040Z,98481.19
2023-03-28T20:11:56.125Z,98488.03
2023-03-28T20:17:17.971Z,98481.56
2023-03-28T20:22:38.903Z,98488.84
2023-03-28T20:28:02.500Z,98488.47
2023-03-28T20:33:23.512Z,98484.19
2023-03-28T20:38:47.598Z,98486.63
2023-03-28T20:44:16.743Z,98480.34
2023-03-28T20:49:45.951Z,98477.78
2023-03-28T20:55:07.963Z,98471.34
2023-03-28T21:00:35.718Z,98461.91
2023-03-28T21:05:57.390Z,98447.31
2023-03-28T21:11:19.793Z,98443.81
2023-03-28T21:16:40.910Z,98445.69
2023-03-28T21:22:01.685Z,98436.50
2023-03-28T21:27:22.549Z,98429.28
2023-03-28T21:32:43.286Z,98431.25
2023-03-28T21:38:04.068Z,98424.78
2023-03-28T21:43:24.791Z,98417.41
2023-03-28T21:48:47.858Z,98414.78
2023-03-28T21:54:08.863Z,98429.66
2023-03-28T21:59:29.691Z,98425.28
2023-03-28T22:04:50.510Z,98413.19
2023-03-28T22:10:11.752Z,98415.78
2023-03-28T22:15:32.974Z,98414.03
2023-03-28T22:20:53.735Z,98411.81
2023-03-28T22:26:15.922Z,98401.28
2023-03-28T22:31:37.255Z,98390.53
2023-03-28T22:36:58.763Z,98381.69
2023-03-28T22:42:19.900Z,98375.97
2023-03-28T22:47:41.056Z,98369.50
2023-03-28T22:53:02.343Z,98367.94
2023-03-28T22:58:23.368Z,98370.09
2023-03-28T23:03:44.436Z,98367.28
2023-03-28T23:09:05.205Z,98367.53
2023-03-28T23:14:26.069Z,98372.25
2023-03-28T23:19:49.484Z,98360.81
2023-03-28T23:25:12.434Z,98361.56
2023-03-28T23:30:33.271Z,98351.97
2023-03-28T23:35:54.096Z,98349.34
2023-03-28T23:41:15.218Z,98350.22
2023-03-28T23:46:35.982Z,98351.41
2023-03-28T23:51:57.075Z,98354.06
2023-03-28T23:57:18.272Z,98346.81
